sensor_id;sensor_type;location;lat;lon;timestamp;P1;durP1;ratioP1;P2;durP2;ratioP2
45136;SDS011;30894;51.740;19.498;2024-03-08T00:00:08;65.45;;;20.60;;
45136;SDS011;30894;51.740;19.498;2024-03-08T00:02:58;52.63;;;18.88;;
45136;SDS011;30894;51.740;19.498;2024-03-08T00:05:26;58.28;;;21.40;;
45136;SDS011;30894;51.740;19.498;2024-03-08T00:07:55;70.90;;;20.48;;
45136;SDS011;30894;51.740;19.498;2024-03-08T00:10:24;71.95;;;20.92;;
45136;SDS011;30894;51.740;19.498;2024-03-08T00:12:53;53.00;;;17.45;;
45136;SDS011;30894;51.740;19.498;2024-03-08T00:15:19;48.75;;;17.42;;
45136;SDS011;30894;51.740;19.498;2024-03-08T00:17:46;55.25;;;18.88;;
45136;SDS011;30894;51.740;19.498;2024-03-08T00:20:12;50.20;;;17.58;;
45136;SDS011;30894;51.740;19.498;2024-03-08T00:22:39;72.63;;;21.20;;
45136;SDS011;30894;51.740;19.498;2024-03-08T00:25:05;64.50;;;20.60;;
45136;SDS011;30894;51.740;19.498;2024-03-08T00:27:51;57.97;;;22.15;;
45136;SDS011;30894;51.740;19.498;2024-03-08T00:30:21;58.15;;;22.30;;
45136;SDS011;30894;51.740;19.498;2024-03-08T00:32:51;69.18;;;21.65;;
45136;SDS011;30894;51.740;19.498;2024-03-08T00:35:17;56.38;;;18.27;;
45136;SDS011;30894;51.740;19.498;2024-03-08T00:37:43;51.83;;;20.80;;
45136;SDS011;30894;51.740;19.498;2024-03-08T00:40:12;70.72;;;23.10;;
45136;SDS011;30894;51.740;19.498;2024-03-08T00:42:39;60.42;;;20.30;;
45136;SDS011;30894;51.740;19.498;2024-03-08T00:45:06;73.57;;;23.23;;
45136;SDS011;30894;51.740;19.498;2024-03-08T00:47:33;60.20;;;20.77;;
45136;SDS011;30894;51.740;19.498;2024-03-08T00:49:59;66.60;;;20.17;;
45136;SDS011;30894;51.740;19.498;2024-03-08T00:52:29;67.78;;;24.23;;
45136;SDS011;30894;51.740;19.498;2024-03-08T00:54:55;73.15;;;20.63;;
45136;SDS011;30894;51.740;19.498;2024-03-08T00:57:22;64.63;;;21.80;;
45136;SDS011;30894;51.740;19.498;2024-03-08T00:59:48;59.22;;;20.85;;
45136;SDS011;30894;51.740;19.498;2024-03-08T01:02:14;67.10;;;22.10;;
45136;SDS011;30894;51.740;19.498;2024-03-08T01:04:42;71.82;;;22.48;;
45136;SDS011;30894;51.740;19.498;2024-03-08T01:07:09;60.17;;;20.50;;
45136;SDS011;30894;51.740;19.498;2024-03-08T01:09:36;62.35;;;19.55;;
45136;SDS011;30894;51.740;19.498;2024-03-08T01:12:02;60.03;;;19.33;;
45136;SDS011;30894;51.740;19.498;2024-03-08T01:14:31;55.75;;;19.08;;
45136;SDS011;30894;51.740;19.498;2024-03-08T01:16:58;56.42;;;19.52;;
45136;SDS011;30894;51.740;19.498;2024-03-08T01:19:25;56.00;;;20.15;;
45136;SDS011;30894;51.740;19.498;2024-03-08T01:21:54;50.00;;;19.20;;
45136;SDS011;30894;51.740;19.498;2024-03-08T01:24:22;60.50;;;20.27;;
45136;SDS011;30894;51.740;19.498;2024-03-08T01:26:50;60.17;;;23.88;;
45136;SDS011;30894;51.740;19.498;2024-03-08T01:29:16;64.53;;;20.25;;
45136;SDS011;30894;51.740;19.498;2024-03-08T01:31:42;68.88;;;22.70;;
45136;SDS011;30894;51.740;19.498;2024-03-08T01:34:09;63.70;;;21.15;;
45136;SDS011;30894;51.740;19.498;2024-03-08T01:36:36;59.63;;;21.17;;
45136;SDS011;30894;51.740;19.498;2024-03-08T01:39:05;60.85;;;21.73;;
45136;SDS011;30894;51.740;19.498;2024-03-08T01:41:33;66.88;;;21.13;;
45136;SDS011;30894;51.740;19.498;2024-03-08T01:44:02;71.18;;;20.60;;
45136;SDS011;30894;51.740;19.498;2024-03-08T01:46:29;54.50;;;20.73;;
45136;SDS011;30894;51.740;19.498;2024-03-08T01:48:56;62.55;;;20.63;;
45136;SDS011;30894;51.740;19.498;2024-03-08T01:51:22;68.22;;;21.63;;
45136;SDS011;30894;51.740;19.498;2024-03-08T01:53:49;59.85;;;19.98;;
45136;SDS011;30894;51.740;19.498;2024-03-08T01:56:16;61.70;;;20.00;;
45136;SDS011;30894;51.740;19.498;2024-03-08T01:58:43;64.00;;;21.67;;
45136;SDS011;30894;51.740;19.498;2024-03-08T02:01:13;55.28;;;20.90;;
45136;SDS011;30894;51.740;19.498;2024-03-08T02:03:44;41.45;;;17.05;;
45136;SDS011;30894;51.740;19.498;2024-03-08T02:06:12;59.28;;;18.25;;
45136;SDS011;30894;51.740;19.498;2024-03-08T02:08:42;64.03;;;20.30;;
45136;SDS011;30894;51.740;19.498;2024-03-08T02:11:09;53.50;;;19.67;;
45136;SDS011;30894;51.740;19.498;2024-03-08T02:13:36;54.53;;;21.33;;
45136;SDS011;30894;51.740;19.498;2024-03-08T02:16:02;56.92;;;21.23;;
45136;SDS011;30894;51.740;19.498;2024-03-08T02:18:29;56.13;;;19.92;;
45136;SDS011;30894;51.740;19.498;2024-03-08T02:21:00;57.08;;;20.80;;
45136;SDS011;30894;51.740;19.498;2024-03-08T02:23:28;61.13;;;22.17;;
45136;SDS011;30894;51.740;19.498;2024-03-08T02:25:55;57.25;;;20.58;;
45136;SDS011;30894;51.740;19.498;2024-03-08T02:28:23;55.88;;;21.55;;
45136;SDS011;30894;51.740;19.498;2024-03-08T02:30:54;61.15;;;19.25;;
45136;SDS011;30894;51.740;19.498;2024-03-08T02:33:23;68.65;;;21.05;;
45136;SDS011;30894;51.740;19.498;2024-03-08T02:35:50;52.88;;;19.70;;
45136;SDS011;30894;51.740;19.498;2024-03-08T02:38:21;56.55;;;20.27;;
45136;SDS011;30894;51.740;19.498;2024-03-08T02:40:50;54.85;;;19.23;;
45136;SDS011;30894;51.740;19.498;2024-03-08T02:43:18;54.03;;;19.48;;
45136;SDS011;30894;51.740;19.498;2024-03-08T02:45:47;51.53;;;19.70;;
45136;SDS011;30894;51.740;19.498;2024-03-08T02:48:17;48.42;;;19.02;;
45136;SDS011;30894;51.740;19.498;2024-03-08T02:50:44;50.08;;;18.25;;
45136;SDS011;30894;51.740;19.498;2024-03-08T02:53:10;47.83;;;19.27;;
45136;SDS011;30894;51.740;19.498;2024-03-08T02:55:41;56.30;;;18.27;;
45136;SDS011;30894;51.740;19.498;2024-03-08T02:58:07;55.17;;;17.23;;
45136;SDS011;30894;51.740;19.498;2024-03-08T03:00:36;44.63;;;17.45;;
45136;SDS011;30894;51.740;19.498;2024-03-08T03:03:04;53.88;;;20.42;;
45136;SDS011;30894;51.740;19.498;2024-03-08T03:05:33;59.75;;;18.65;;
45136;SDS011;30894;51.740;19.498;2024-03-08T03:07:59;46.60;;;17.75;;
45136;SDS011;30894;51.740;19.498;2024-03-08T03:10:35;51.20;;;19.50;;
45136;SDS011;30894;51.740;19.498;2024-03-08T03:13:04;54.33;;;21.45;;
45136;SDS011;30894;51.740;19.498;2024-03-08T03:15:30;54.80;;;20.95;;
45136;SDS011;30894;51.740;19.498;2024-03-08T03:17:56;55.97;;;21.52;;
45136;SDS011;30894;51.740;19.498;2024-03-08T03:20:28;54.88;;;18.95;;
45136;SDS011;30894;51.740;19.498;2024-03-08T03:23:05;54.88;;;19.50;;
45136;SDS011;30894;51.740;19.498;2024-03-08T03:25:34;57.47;;;21.30;;
45136;SDS011;30894;51.740;19.498;2024-03-08T03:28:01;52.50;;;20.17;;
45136;SDS011;30894;51.740;19.498;2024-03-08T03:30:28;62.00;;;21.67;;
45136;SDS011;30894;51.740;19.498;2024-03-08T03:33:00;55.15;;;18.50;;
45136;SDS011;30894;51.740;19.498;2024-03-08T03:35:32;54.42;;;18.48;;
45136;SDS011;30894;51.740;19.498;2024-03-08T03:38:02;47.42;;;18.70;;
45136;SDS011;30894;51.740;19.498;2024-03-08T03:40:35;61.47;;;20.33;;
45136;SDS011;30894;51.740;19.498;2024-03-08T03:43:03;60.10;;;22.38;;
45136;SDS011;30894;51.740;19.498;2024-03-08T03:45:29;59.65;;;22.05;;
45136;SDS011;30894;51.740;19.498;2024-03-08T03:48:01;54.72;;;21.42;;
45136;SDS011;30894;51.740;19.498;2024-03-08T03:50:29;54.08;;;21.52;;
45136;SDS011;30894;51.740;19.498;2024-03-08T03:52:55;54.22;;;19.17;;
45136;SDS011;30894;51.740;19.498;2024-03-08T03:55:22;43.63;;;16.73;;
45136;SDS011;30894;51.740;19.498;2024-03-08T03:57:48;39.92;;;17.05;;
45136;SDS011;30894;51.740;19.498;2024-03-08T04:00:15;47.92;;;18.77;;
45136;SDS011;30894;51.740;19.498;2024-03-08T04:02:42;45.65;;;18.38;;
45136;SDS011;30894;51.740;19.498;2024-03-08T04:05:09;57.50;;;22.35;;
45136;SDS011;30894;51.740;19.498;2024-03-08T04:07:36;73.13;;;28.15;;
45136;SDS011;30894;51.740;19.498;2024-03-08T04:10:04;67.47;;;23.85;;
45136;SDS011;30894;51.740;19.498;2024-03-08T04:12:35;55.83;;;21.02;;
45136;SDS011;30894;51.740;19.498;2024-03-08T04:15:03;55.97;;;19.58;;
45136;SDS011;30894;51.740;19.498;2024-03-08T04:17:33;54.60;;;18.38;;
45136;SDS011;30894;51.740;19.498;2024-03-08T04:20:03;53.67;;;20.70;;
45136;SDS011;30894;51.740;19.498;2024-03-08T04:22:34;42.97;;;16.40;;
45136;SDS011;30894;51.740;19.498;2024-03-08T04:25:05;38.58;;;16.73;;
45136;SDS011;30894;51.740;19.498;2024-03-08T04:27:32;47.15;;;17.13;;
45136;SDS011;30894;51.740;19.498;2024-03-08T04:29:59;40.83;;;16.88;;
45136;SDS011;30894;51.740;19.498;2024-03-08T04:32:26;50.60;;;18.92;;
45136;SDS011;30894;51.740;19.498;2024-03-08T04:34:53;55.97;;;18.00;;
45136;SDS011;30894;51.740;19.498;2024-03-08T04:37:19;53.30;;;18.65;;
45136;SDS011;30894;51.740;19.498;2024-03-08T04:39:48;69.13;;;23.13;;
45136;SDS011;30894;51.740;19.498;2024-03-08T04:42:14;76.93;;;24.80;;
45136;SDS011;30894;51.740;19.498;2024-03-08T04:44:43;94.88;;;27.95;;
45136;SDS011;30894;51.740;19.498;2024-03-08T04:47:10;77.03;;;25.45;;
45136;SDS011;30894;51.740;19.498;2024-03-08T04:49:36;55.83;;;21.38;;
45136;SDS011;30894;51.740;19.498;2024-03-08T04:52:03;66.85;;;23.23;;
45136;SDS011;30894;51.740;19.498;2024-03-08T04:54:30;51.22;;;18.88;;
45136;SDS011;30894;51.740;19.498;2024-03-08T04:56:56;58.97;;;20.30;;
45136;SDS011;30894;51.740;19.498;2024-03-08T04:59:23;52.88;;;17.77;;
45136;SDS011;30894;51.740;19.498;2024-03-08T05:01:49;54.03;;;19.55;;
45136;SDS011;30894;51.740;19.498;2024-03-08T05:04:15;53.10;;;18.08;;
45136;SDS011;30894;51.740;19.498;2024-03-08T05:06:44;42.88;;;18.27;;
45136;SDS011;30894;51.740;19.498;2024-03-08T05:09:10;58.88;;;19.73;;
45136;SDS011;30894;51.740;19.498;2024-03-08T05:11:42;47.88;;;18.42;;
45136;SDS011;30894;51.740;19.498;2024-03-08T05:14:13;37.28;;;15.65;;
45136;SDS011;30894;51.740;19.498;2024-03-08T05:16:47;36.13;;;15.98;;
45136;SDS011;30894;51.740;19.498;2024-03-08T05:19:17;47.15;;;16.75;;
45136;SDS011;30894;51.740;19.498;2024-03-08T05:21:45;46.60;;;15.93;;
45136;SDS011;30894;51.740;19.498;2024-03-08T05:24:13;45.55;;;16.63;;
45136;SDS011;30894;51.740;19.498;2024-03-08T05:26:40;43.88;;;17.38;;
45136;SDS011;30894;51.740;19.498;2024-03-08T05:29:08;35.38;;;16.58;;
45136;SDS011;30894;51.740;19.498;2024-03-08T05:31:47;40.63;;;15.18;;
45136;SDS011;30894;51.740;19.498;2024-03-08T05:34:16;44.92;;;16.02;;
45136;SDS011;30894;51.740;19.498;2024-03-08T05:36:43;44.63;;;17.42;;
45136;SDS011;30894;51.740;19.498;2024-03-08T05:39:10;36.95;;;15.13;;
45136;SDS011;30894;51.740;19.498;2024-03-08T05:41:40;45.65;;;17.63;;
45136;SDS011;30894;51.740;19.498;2024-03-08T05:44:08;42.30;;;16.83;;
45136;SDS011;30894;51.740;19.498;2024-03-08T05:46:35;45.88;;;17.20;;
45136;SDS011;30894;51.740;19.498;2024-03-08T05:49:06;48.25;;;18.45;;
45136;SDS011;30894;51.740;19.498;2024-03-08T05:51:35;43.85;;;17.27;;
45136;SDS011;30894;51.740;19.498;2024-03-08T05:54:05;43.47;;;17.23;;
45136;SDS011;30894;51.740;19.498;2024-03-08T05:56:37;45.65;;;18.48;;
45136;SDS011;30894;51.740;19.498;2024-03-08T05:59:06;55.10;;;20.65;;
45136;SDS011;30894;51.740;19.498;2024-03-08T06:01:32;65.22;;;26.58;;
45136;SDS011;30894;51.740;19.498;2024-03-08T06:04:02;45.17;;;18.17;;
45136;SDS011;30894;51.740;19.498;2024-03-08T06:06:29;44.20;;;18.15;;
45136;SDS011;30894;51.740;19.498;2024-03-08T06:08:58;36.97;;;15.85;;
45136;SDS011;30894;51.740;19.498;2024-03-08T06:11:25;44.47;;;18.35;;
45136;SDS011;30894;51.740;19.498;2024-03-08T06:13:56;57.70;;;22.55;;
45136;SDS011;30894;51.740;19.498;2024-03-08T06:16:27;94.63;;;30.33;;
45136;SDS011;30894;51.740;19.498;2024-03-08T06:18:57;69.95;;;23.00;;
45136;SDS011;30894;51.740;19.498;2024-03-08T06:21:27;67.95;;;26.80;;
45136;SDS011;30894;51.740;19.498;2024-03-08T06:23:54;51.08;;;18.15;;
45136;SDS011;30894;51.740;19.498;2024-03-08T06:26:23;57.55;;;21.63;;
45136;SDS011;30894;51.740;19.498;2024-03-08T06:28:51;46.42;;;21.30;;
45136;SDS011;30894;51.740;19.498;2024-03-08T06:31:16;48.25;;;20.25;;
45136;SDS011;30894;51.740;19.498;2024-03-08T06:33:43;55.75;;;19.20;;
45136;SDS011;30894;51.740;19.498;2024-03-08T06:36:12;60.08;;;21.55;;
45136;SDS011;30894;51.740;19.498;2024-03-08T06:38:41;58.28;;;23.15;;
45136;SDS011;30894;51.740;19.498;2024-03-08T06:41:10;48.80;;;19.13;;
45136;SDS011;30894;51.740;19.498;2024-03-08T06:43:43;46.33;;;18.65;;
45136;SDS011;30894;51.740;19.498;2024-03-08T06:46:15;48.90;;;16.88;;
45136;SDS011;30894;51.740;19.498;2024-03-08T06:48:41;53.58;;;19.48;;
45136;SDS011;30894;51.740;19.498;2024-03-08T06:51:10;50.00;;;18.40;;
45136;SDS011;30894;51.740;19.498;2024-03-08T06:53:43;50.40;;;19.15;;
45136;SDS011;30894;51.740;19.498;2024-03-08T06:56:09;44.83;;;15.75;;
45136;SDS011;30894;51.740;19.498;2024-03-08T06:58:36;36.33;;;14.23;;
45136;SDS011;30894;51.740;19.498;2024-03-08T07:01:05;41.92;;;14.98;;
45136;SDS011;30894;51.740;19.498;2024-03-08T07:03:35;33.15;;;13.50;;
45136;SDS011;30894;51.740;19.498;2024-03-08T07:06:01;36.53;;;13.63;;
45136;SDS011;30894;51.740;19.498;2024-03-08T07:08:28;38.90;;;14.95;;
45136;SDS011;30894;51.740;19.498;2024-03-08T07:10:58;38.78;;;15.00;;
45136;SDS011;30894;51.740;19.498;2024-03-08T07:13:31;41.17;;;15.55;;
45136;SDS011;30894;51.740;19.498;2024-03-08T07:16:24;34.63;;;14.20;;
45136;SDS011;30894;51.740;19.498;2024-03-08T07:19:10;33.63;;;13.40;;
45136;SDS011;30894;51.740;19.498;2024-03-08T07:21:51;31.13;;;13.02;;
45136;SDS011;30894;51.740;19.498;2024-03-08T07:24:29;27.50;;;12.85;;
45136;SDS011;30894;51.740;19.498;2024-03-08T07:27:18;26.67;;;11.95;;
45136;SDS011;30894;51.740;19.498;2024-03-08T07:29:50;30.25;;;10.95;;
45136;SDS011;30894;51.740;19.498;2024-03-08T07:32:29;31.33;;;13.07;;
45136;SDS011;30894;51.740;19.498;2024-03-08T07:35:02;30.73;;;12.52;;
45136;SDS011;30894;51.740;19.498;2024-03-08T07:38:04;29.38;;;11.68;;
45136;SDS011;30894;51.740;19.498;2024-03-08T07:40:46;24.23;;;11.23;;
45136;SDS011;30894;51.740;19.498;2024-03-08T07:43:14;27.23;;;12.15;;
45136;SDS011;30894;51.740;19.498;2024-03-08T07:45:52;23.70;;;10.00;;
45136;SDS011;30894;51.740;19.498;2024-03-08T07:48:22;21.67;;;9.60;;
45136;SDS011;30894;51.740;19.498;2024-03-08T07:50:50;20.65;;;9.70;;
45136;SDS011;30894;51.740;19.498;2024-03-08T07:53:16;21.10;;;9.15;;
45136;SDS011;30894;51.740;19.498;2024-03-08T07:55:46;22.42;;;9.90;;
45136;SDS011;30894;51.740;19.498;2024-03-08T07:58:12;18.13;;;9.25;;
45136;SDS011;30894;51.740;19.498;2024-03-08T08:00:42;18.05;;;9.48;;
45136;SDS011;30894;51.740;19.498;2024-03-08T08:03:10;16.10;;;8.50;;
45136;SDS011;30894;51.740;19.498;2024-03-08T08:05:40;24.58;;;8.73;;
45136;SDS011;30894;51.740;19.498;2024-03-08T08:08:07;20.27;;;9.07;;
45136;SDS011;30894;51.740;19.498;2024-03-08T08:10:36;16.70;;;7.90;;
45136;SDS011;30894;51.740;19.498;2024-03-08T08:13:06;18.80;;;8.90;;
45136;SDS011;30894;51.740;19.498;2024-03-08T08:15:33;19.05;;;8.55;;
45136;SDS011;30894;51.740;19.498;2024-03-08T08:17:59;19.20;;;8.73;;
45136;SDS011;30894;51.740;19.498;2024-03-08T08:20:26;20.25;;;8.43;;
45136;SDS011;30894;51.740;19.498;2024-03-08T08:22:54;22.00;;;9.13;;
45136;SDS011;30894;51.740;19.498;2024-03-08T08:25:21;18.60;;;9.50;;
45136;SDS011;30894;51.740;19.498;2024-03-08T08:27:49;21.38;;;8.20;;
45136;SDS011;30894;51.740;19.498;2024-03-08T08:30:16;16.55;;;7.32;;
45136;SDS011;30894;51.740;19.498;2024-03-08T08:32:42;15.88;;;8.10;;
45136;SDS011;30894;51.740;19.498;2024-03-08T08:35:08;17.90;;;8.00;;
45136;SDS011;30894;51.740;19.498;2024-03-08T08:37:38;18.27;;;8.43;;
45136;SDS011;30894;51.740;19.498;2024-03-08T08:40:05;17.80;;;8.30;;
45136;SDS011;30894;51.740;19.498;2024-03-08T08:42:38;18.58;;;8.32;;
45136;SDS011;30894;51.740;19.498;2024-03-08T08:45:08;15.73;;;7.97;;
45136;SDS011;30894;51.740;19.498;2024-03-08T08:47:36;19.27;;;8.10;;
45136;SDS011;30894;51.740;19.498;2024-03-08T08:50:02;22.13;;;9.20;;
45136;SDS011;30894;51.740;19.498;2024-03-08T08:52:31;14.15;;;7.20;;
45136;SDS011;30894;51.740;19.498;2024-03-08T08:54:58;15.82;;;6.72;;
45136;SDS011;30894;51.740;19.498;2024-03-08T08:57:24;14.63;;;6.85;;
45136;SDS011;30894;51.740;19.498;2024-03-08T08:59:53;12.35;;;6.47;;
45136;SDS011;30894;51.740;19.498;2024-03-08T09:02:19;13.32;;;6.22;;
45136;SDS011;30894;51.740;19.498;2024-03-08T09:04:48;13.60;;;6.97;;
45136;SDS011;30894;51.740;19.498;2024-03-08T09:07:14;14.30;;;6.18;;
45136;SDS011;30894;51.740;19.498;2024-03-08T09:09:44;12.00;;;7.00;;
45136;SDS011;30894;51.740;19.498;2024-03-08T09:12:13;13.15;;;6.65;;
45136;SDS011;30894;51.740;19.498;2024-03-08T09:14:40;15.15;;;6.18;;
45136;SDS011;30894;51.740;19.498;2024-03-08T09:17:07;12.88;;;6.22;;
45136;SDS011;30894;51.740;19.498;2024-03-08T09:19:34;14.23;;;6.25;;
45136;SDS011;30894;51.740;19.498;2024-03-08T09:22:02;14.88;;;6.97;;
45136;SDS011;30894;51.740;19.498;2024-03-08T09:24:29;13.90;;;6.40;;
45136;SDS011;30894;51.740;19.498;2024-03-08T09:26:56;14.80;;;6.80;;
45136;SDS011;30894;51.740;19.498;2024-03-08T09:29:24;12.98;;;6.85;;
45136;SDS011;30894;51.740;19.498;2024-03-08T09:31:51;19.55;;;7.57;;
45136;SDS011;30894;51.740;19.498;2024-03-08T09:34:17;13.57;;;6.32;;
45136;SDS011;30894;51.740;19.498;2024-03-08T09:36:44;13.68;;;6.32;;
45136;SDS011;30894;51.740;19.498;2024-03-08T09:39:10;12.18;;;6.35;;
45136;SDS011;30894;51.740;19.498;2024-03-08T09:41:42;15.15;;;6.68;;
45136;SDS011;30894;51.740;19.498;2024-03-08T09:44:18;12.82;;;6.50;;
45136;SDS011;30894;51.740;19.498;2024-03-08T09:46:45;13.52;;;6.60;;
45136;SDS011;30894;51.740;19.498;2024-03-08T09:49:19;13.35;;;6.13;;
45136;SDS011;30894;51.740;19.498;2024-03-08T09:51:46;17.00;;;6.38;;
45136;SDS011;30894;51.740;19.498;2024-03-08T09:54:17;16.15;;;7.93;;
45136;SDS011;30894;51.740;19.498;2024-03-08T09:56:48;13.35;;;5.55;;
45136;SDS011;30894;51.740;19.498;2024-03-08T09:59:17;11.23;;;6.15;;
45136;SDS011;30894;51.740;19.498;2024-03-08T10:01:51;10.73;;;6.15;;
45136;SDS011;30894;51.740;19.498;2024-03-08T10:04:18;13.95;;;6.97;;
45136;SDS011;30894;51.740;19.498;2024-03-08T10:06:45;14.35;;;6.65;;
45136;SDS011;30894;51.740;19.498;2024-03-08T10:09:15;14.75;;;6.82;;
45136;SDS011;30894;51.740;19.498;2024-03-08T10:11:41;12.63;;;6.03;;
45136;SDS011;30894;51.740;19.498;2024-03-08T10:14:09;11.90;;;6.55;;
45136;SDS011;30894;51.740;19.498;2024-03-08T10:16:36;12.77;;;6.15;;
45136;SDS011;30894;51.740;19.498;2024-03-08T10:19:05;15.82;;;6.25;;
45136;SDS011;30894;51.740;19.498;2024-03-08T10:21:32;13.02;;;6.88;;
45136;SDS011;30894;51.740;19.498;2024-03-08T10:23:59;11.32;;;6.22;;
45136;SDS011;30894;51.740;19.498;2024-03-08T10:26:31;14.10;;;6.88;;
45136;SDS011;30894;51.740;19.498;2024-03-08T10:28:58;10.35;;;5.13;;
45136;SDS011;30894;51.740;19.498;2024-03-08T10:31:24;13.45;;;5.95;;
45136;SDS011;30894;51.740;19.498;2024-03-08T10:33:50;12.23;;;5.93;;
45136;SDS011;30894;51.740;19.498;2024-03-08T10:36:19;13.40;;;6.40;;
45136;SDS011;30894;51.740;19.498;2024-03-08T10:38:46;10.63;;;5.68;;
45136;SDS011;30894;51.740;19.498;2024-03-08T10:41:14;9.32;;;5.10;;
45136;SDS011;30894;51.740;19.498;2024-03-08T10:50:07;11.43;;;4.78;;
45136;SDS011;30894;51.740;19.498;2024-03-08T10:52:46;12.07;;;5.65;;
45136;SDS011;30894;51.740;19.498;2024-03-08T10:55:18;13.80;;;6.50;;
45136;SDS011;30894;51.740;19.498;2024-03-08T10:57:46;11.82;;;5.25;;
45136;SDS011;30894;51.740;19.498;2024-03-08T11:00:18;13.45;;;5.53;;
45136;SDS011;30894;51.740;19.498;2024-03-08T11:02:54;10.02;;;5.03;;
45136;SDS011;30894;51.740;19.498;2024-03-08T11:05:40;12.13;;;5.35;;
45136;SDS011;30894;51.740;19.498;2024-03-08T11:10:49;9.55;;;4.70;;
45136;SDS011;30894;51.740;19.498;2024-03-08T11:18:56;10.63;;;4.90;;
45136;SDS011;30894;51.740;19.498;2024-03-08T11:21:32;10.55;;;5.07;;
45136;SDS011;30894;51.740;19.498;2024-03-08T11:23:59;11.88;;;5.10;;
45136;SDS011;30894;51.740;19.498;2024-03-08T11:26:34;12.13;;;5.30;;
45136;SDS011;30894;51.740;19.498;2024-03-08T11:32:15;8.55;;;4.40;;
45136;SDS011;30894;51.740;19.498;2024-03-08T11:34:48;8.77;;;4.45;;
45136;SDS011;30894;51.740;19.498;2024-03-08T11:37:21;9.82;;;4.60;;
45136;SDS011;30894;51.740;19.498;2024-03-08T11:39:54;9.25;;;5.18;;
45136;SDS011;30894;51.740;19.498;2024-03-08T11:42:30;9.23;;;4.90;;
45136;SDS011;30894;51.740;19.498;2024-03-08T11:44:56;8.98;;;4.93;;
45136;SDS011;30894;51.740;19.498;2024-03-08T11:47:26;9.00;;;4.72;;
45136;SDS011;30894;51.740;19.498;2024-03-08T11:49:54;10.23;;;4.97;;
45136;SDS011;30894;51.740;19.498;2024-03-08T11:52:20;10.07;;;5.05;;
45136;SDS011;30894;51.740;19.498;2024-03-08T11:54:48;9.77;;;5.50;;
45136;SDS011;30894;51.740;19.498;2024-03-08T11:57:25;16.65;;;5.88;;
45136;SDS011;30894;51.740;19.498;2024-03-08T11:59:51;10.82;;;5.90;;
45136;SDS011;30894;51.740;19.498;2024-03-08T12:02:19;13.02;;;6.07;;
45136;SDS011;30894;51.740;19.498;2024-03-08T12:04:46;14.90;;;5.63;;
45136;SDS011;30894;51.740;19.498;2024-03-08T12:07:12;17.33;;;6.50;;
45136;SDS011;30894;51.740;19.498;2024-03-08T12:09:42;10.63;;;5.63;;
45136;SDS011;30894;51.740;19.498;2024-03-08T12:12:12;13.25;;;6.63;;
45136;SDS011;30894;51.740;19.498;2024-03-08T12:14:39;11.30;;;5.70;;
45136;SDS011;30894;51.740;19.498;2024-03-08T12:17:10;10.70;;;6.05;;
45136;SDS011;30894;51.740;19.498;2024-03-08T12:19:38;14.43;;;6.15;;
45136;SDS011;30894;51.740;19.498;2024-03-08T12:22:09;13.73;;;6.43;;
45136;SDS011;30894;51.740;19.498;2024-03-08T12:24:35;10.35;;;5.75;;
45136;SDS011;30894;51.740;19.498;2024-03-08T12:27:19;17.00;;;6.38;;
45136;SDS011;30894;51.740;19.498;2024-03-08T12:29:53;12.18;;;6.00;;
45136;SDS011;30894;51.740;19.498;2024-03-08T12:32:23;15.10;;;6.75;;
45136;SDS011;30894;51.740;19.498;2024-03-08T12:34:55;13.43;;;6.43;;
45136;SDS011;30894;51.740;19.498;2024-03-08T12:37:25;12.57;;;6.25;;
45136;SDS011;30894;51.740;19.498;2024-03-08T12:39:51;14.00;;;5.97;;
45136;SDS011;30894;51.740;19.498;2024-03-08T12:42:22;11.63;;;6.47;;
45136;SDS011;30894;51.740;19.498;2024-03-08T12:44:48;12.25;;;5.97;;
45136;SDS011;30894;51.740;19.498;2024-03-08T12:47:15;16.00;;;7.07;;
45136;SDS011;30894;51.740;19.498;2024-03-08T12:49:41;12.23;;;5.90;;
45136;SDS011;30894;51.740;19.498;2024-03-08T12:52:08;13.93;;;6.50;;
45136;SDS011;30894;51.740;19.498;2024-03-08T12:54:39;13.57;;;6.55;;
45136;SDS011;30894;51.740;19.498;2024-03-08T12:57:06;13.45;;;6.38;;
45136;SDS011;30894;51.740;19.498;2024-03-08T12:59:33;13.02;;;6.05;;
45136;SDS011;30894;51.740;19.498;2024-03-08T13:01:59;19.60;;;7.05;;
45136;SDS011;30894;51.740;19.498;2024-03-08T13:04:28;13.05;;;7.53;;
45136;SDS011;30894;51.740;19.498;2024-03-08T13:06:57;13.43;;;7.03;;
45136;SDS011;30894;51.740;19.498;2024-03-08T13:09:23;13.13;;;6.15;;
45136;SDS011;30894;51.740;19.498;2024-03-08T13:11:53;13.38;;;6.70;;
45136;SDS011;30894;51.740;19.498;2024-03-08T13:14:20;15.02;;;7.05;;
45136;SDS011;30894;51.740;19.498;2024-03-08T13:16:47;14.75;;;7.10;;
45136;SDS011;30894;51.740;19.498;2024-03-08T13:19:17;13.77;;;6.25;;
45136;SDS011;30894;51.740;19.498;2024-03-08T13:21:47;12.27;;;5.60;;
45136;SDS011;30894;51.740;19.498;2024-03-08T13:24:16;11.13;;;5.53;;
45136;SDS011;30894;51.740;19.498;2024-03-08T13:26:44;15.85;;;7.80;;
45136;SDS011;30894;51.740;19.498;2024-03-08T13:29:10;15.80;;;6.63;;
45136;SDS011;30894;51.740;19.498;2024-03-08T13:31:37;17.40;;;6.63;;
45136;SDS011;30894;51.740;19.498;2024-03-08T13:34:05;15.55;;;6.68;;
45136;SDS011;30894;51.740;19.498;2024-03-08T13:36:32;13.18;;;5.95;;
45136;SDS011;30894;51.740;19.498;2024-03-08T13:39:04;13.63;;;6.47;;
45136;SDS011;30894;51.740;19.498;2024-03-08T13:41:43;12.35;;;6.50;;
45136;SDS011;30894;51.740;19.498;2024-03-08T13:44:10;13.68;;;6.93;;
45136;SDS011;30894;51.740;19.498;2024-03-08T13:46:39;11.05;;;5.57;;
45136;SDS011;30894;51.740;19.498;2024-03-08T13:49:05;11.38;;;5.80;;
45136;SDS011;30894;51.740;19.498;2024-03-08T13:51:34;10.30;;;5.15;;
45136;SDS011;30894;51.740;19.498;2024-03-08T13:54:03;11.57;;;5.65;;
45136;SDS011;30894;51.740;19.498;2024-03-08T13:56:34;11.15;;;6.05;;
45136;SDS011;30894;51.740;19.498;2024-03-08T13:59:00;14.00;;;6.65;;
45136;SDS011;30894;51.740;19.498;2024-03-08T14:01:28;11.27;;;5.88;;
45136;SDS011;30894;51.740;19.498;2024-03-08T14:03:55;14.43;;;6.40;;
45136;SDS011;30894;51.740;19.498;2024-03-08T14:06:22;11.73;;;5.88;;
45136;SDS011;30894;51.740;19.498;2024-03-08T14:08:50;11.40;;;5.53;;
45136;SDS011;30894;51.740;19.498;2024-03-08T14:11:17;13.48;;;6.13;;
45136;SDS011;30894;51.740;19.498;2024-03-08T14:13:44;14.32;;;6.10;;
45136;SDS011;30894;51.740;19.498;2024-03-08T14:16:13;12.18;;;5.90;;
45136;SDS011;30894;51.740;19.498;2024-03-08T14:18:43;11.18;;;5.80;;
45136;SDS011;30894;51.740;19.498;2024-03-08T14:21:10;11.38;;;5.78;;
45136;SDS011;30894;51.740;19.498;2024-03-08T14:23:36;12.88;;;6.57;;
45136;SDS011;30894;51.740;19.498;2024-03-08T14:26:08;14.55;;;6.60;;
45136;SDS011;30894;51.740;19.498;2024-03-08T14:28:35;12.52;;;6.13;;
45136;SDS011;30894;51.740;19.498;2024-03-08T14:31:02;15.75;;;6.68;;
45136;SDS011;30894;51.740;19.498;2024-03-08T14:33:28;14.02;;;6.32;;
45136;SDS011;30894;51.740;19.498;2024-03-08T14:35:55;14.02;;;6.20;;
45136;SDS011;30894;51.740;19.498;2024-03-08T14:38:22;14.90;;;6.70;;
45136;SDS011;30894;51.740;19.498;2024-03-08T14:40:51;14.02;;;6.25;;
45136;SDS011;30894;51.740;19.498;2024-03-08T14:43:18;13.00;;;6.47;;